createdAt,value
2022-07-30T00:00:24.726Z,27.43
2022-07-30T00:02:52.476Z,28.03
2022-07-30T00:05:19.629Z,26.83
2022-07-30T00:07:47.384Z,26.57
2022-07-30T00:10:14.517Z,25.57
2022-07-30T00:12:41.670Z,24.67
2022-07-30T00:15:09.159Z,22.77
2022-07-30T00:17:36.372Z,22.80
2022-07-30T00:20:03.916Z,22.93
2022-07-30T00:22:31.423Z,22.77
2022-07-30T00:24:58.615Z,22.03
2022-07-30T00:27:25.769Z,23.63
2022-07-30T00:29:52.975Z,22.10
2022-07-30T00:32:20.170Z,23.87
2022-07-30T00:34:47.375Z,25.80
2022-07-30T00:37:14.526Z,23.13
2022-07-30T00:39:41.686Z,24.87
2022-07-30T00:42:08.882Z,24.97
2022-07-30T00:44:36.027Z,27.73
2022-07-30T00:47:08.368Z,24.40
2022-07-30T00:49:35.565Z,24.03
2022-07-30T00:52:02.730Z,24.50
2022-07-30T00:54:29.883Z,23.97
2022-07-30T00:56:57.142Z,28.00
2022-07-30T00:59:24.429Z,27.23
2022-07-30T01:05:21.180Z,28.53
2022-07-30T01:07:48.409Z,26.90
2022-07-30T01:10:16.335Z,28.33
2022-07-30T01:12:44.580Z,28.97
2022-07-30T01:15:12.758Z,28.83
2022-07-30T01:17:40.161Z,27.87
2022-07-30T01:20:09.119Z,28.43
2022-07-30T01:22:36.364Z,29.00
2022-07-30T01:25:15.391Z,27.20
2022-07-30T01:27:44.793Z,27.83
2022-07-30T01:30:12.717Z,28.20
2022-07-30T01:32:43.432Z,27.30
2022-07-30T01:35:11.544Z,28.47
2022-07-30T01:37:39.576Z,26.70
2022-07-30T01:40:07.402Z,25.10
2022-07-30T01:42:35.559Z,27.70
2022-07-30T01:45:03.603Z,26.97
2022-07-30T01:47:31.757Z,28.47
2022-07-30T01:49:59.938Z,30.10
2022-07-30T01:52:30.955Z,30.43
2022-07-30T01:54:59.110Z,31.13
2022-07-30T01:57:26.753Z,30.67
2022-07-30T01:59:58.287Z,31.60
2022-07-30T02:02:25.464Z,30.67
2022-07-30T02:04:52.652Z,33.23
2022-07-30T02:07:24.150Z,33.63
2022-07-30T02:09:56.292Z,32.37
2022-07-30T02:12:28.569Z,31.87
2022-07-30T02:14:58.933Z,28.93
2022-07-30T02:17:30.423Z,29.37
2022-07-30T02:20:09.990Z,29.10
2022-07-30T02:22:38.762Z,30.10
2022-07-30T02:25:06.491Z,29.57
2022-07-30T02:27:35.877Z,31.43
2022-07-30T02:30:06.259Z,30.93
2022-07-30T02:32:38.139Z,30.57
2022-07-30T02:35:10.397Z,30.20
2022-07-30T02:37:41.010Z,30.63
2022-07-30T02:40:13.380Z,29.87
2022-07-30T02:42:41.746Z,30.33
2022-07-30T02:45:09.157Z,31.70
2022-07-30T02:47:37.640Z,32.07
2022-07-30T02:50:05.352Z,31.17
2022-07-30T02:52:32.674Z,33.07
2022-07-30T02:55:01.042Z,32.63
2022-07-30T02:57:28.755Z,32.97
2022-07-30T02:59:56.658Z,33.47
2022-07-30T03:02:29.805Z,32.63
2022-07-30T03:04:59.580Z,32.47
2022-07-30T03:07:28.178Z,31.13
2022-07-30T03:09:55.935Z,27.97
2022-07-30T03:12:24.281Z,28.43
2022-07-30T03:14:51.796Z,30.80
2022-07-30T03:17:19.613Z,31.67
2022-07-30T03:19:48.836Z,31.13
2022-07-30T03:22:16.336Z,29.03
2022-07-30T03:24:44.564Z,30.07
2022-07-30T03:27:11.693Z,29.63
2022-07-30T03:29:39.800Z,26.30
2022-07-30T03:32:07.290Z,23.20
2022-07-30T03:34:35.177Z,21.40
2022-07-30T03:37:05.019Z,20.63
2022-07-30T03:39:36.235Z,21.07
2022-07-30T03:42:04.142Z,23.67
2022-07-30T03:44:31.642Z,23.43
2022-07-30T03:47:00.277Z,23.30
2022-07-30T03:49:29.322Z,24.07
2022-07-30T03:51:56.776Z,23.60
2022-07-30T03:54:24.240Z,22.63
2022-07-30T03:56:51.445Z,21.17
2022-07-30T03:59:18.692Z,21.43
2022-07-30T04:01:46.353Z,21.30
2022-07-30T04:04:13.608Z,20.90
2022-07-30T04:06:40.834Z,22.00
2022-07-30T04:09:08.819Z,22.40
2022-07-30T04:11:40.662Z,22.90
2022-07-30T04:14:09.271Z,22.67
2022-07-30T04:16:48.272Z,22.83
2022-07-30T04:19:30.267Z,21.63
2022-07-30T04:21:59.358Z,22.20
2022-07-30T04:24:27.518Z,21.40
2022-07-30T04:26:54.791Z,22.53
2022-07-30T04:29:24.698Z,21.20
2022-07-30T04:31:53.549Z,21.57
2022-07-30T04:34:20.984Z,22.27
2022-07-30T04:36:48.118Z,21.60
2022-07-30T04:39:15.825Z,20.93
2022-07-30T04:41:48.978Z,19.67
2022-07-30T04:44:17.387Z,20.00
2022-07-30T04:46:44.580Z,19.97
2022-07-30T04:49:13.066Z,19.40
2022-07-30T04:51:41.454Z,18.40
2022-07-30T04:54:15.791Z,20.00
2022-07-30T04:56:53.724Z,18.83
2022-07-30T04:59:22.377Z,20.53
2022-07-30T05:01:50.892Z,19.87
2022-07-30T05:04:19.003Z,21.83
2022-07-30T05:06:46.576Z,20.30
2022-07-30T05:09:15.213Z,20.17
2022-07-30T05:11:42.350Z,19.97
2022-07-30T05:14:09.454Z,19.90
2022-07-30T05:16:36.593Z,20.67
2022-07-30T05:19:07.452Z,19.73
2022-07-30T05:21:35.243Z,18.37
2022-07-30T05:24:02.382Z,19.00
2022-07-30T05:26:29.550Z,23.17
2022-07-30T05:28:57.275Z,24.50
2022-07-30T05:31:25.012Z,23.20
2022-07-30T05:33:52.354Z,21.77
2022-07-30T05:36:20.409Z,20.70
2022-07-30T05:38:48.045Z,19.37
2022-07-30T05:41:30.623Z,19.33
2022-07-30T05:44:00.464Z,18.33
2022-07-30T05:46:27.680Z,17.90
2022-07-30T05:48:54.975Z,17.43
2022-07-30T05:51:22.476Z,14.83
2022-07-30T05:53:49.973Z,13.93
2022-07-30T05:56:17.172Z,14.50
2022-07-30T05:58:44.320Z,12.00
2022-07-30T06:01:11.703Z,10.93
2022-07-30T06:03:39.387Z,9.50
2022-07-30T06:06:07.637Z,10.47
2022-07-30T06:08:34.904Z,9.30
2022-07-30T06:11:02.010Z,8.77
2022-07-30T06:13:29.218Z,8.97
2022-07-30T06:15:56.749Z,10.23
2022-07-30T06:18:23.941Z,10.00
2022-07-30T06:20:52.041Z,9.93
2022-07-30T06:23:19.525Z,10.30
2022-07-30T06:25:48.119Z,10.03
2022-07-30T06:28:36.363Z,10.70
2022-07-30T06:31:02.909Z,10.50
2022-07-30T06:33:30.379Z,10.87
2022-07-30T06:35:57.492Z,11.30
2022-07-30T06:38:24.686Z,11.53
2022-07-30T06:40:51.907Z,10.63
2022-07-30T06:43:20.314Z,12.35
2022-07-30T06:45:47.437Z,11.73
2022-07-30T06:48:14.616Z,11.60
2022-07-30T06:50:41.887Z,11.50
2022-07-30T06:53:09.201Z,13.03
2022-07-30T06:55:36.337Z,14.20
2022-07-30T06:58:03.795Z,13.77
2022-07-30T07:00:31.135Z,12.63
2022-07-30T07:02:58.229Z,14.95
2022-07-30T07:05:28.915Z,14.60
2022-07-30T07:07:59.605Z,14.88
2022-07-30T07:10:27.709Z,14.38
2022-07-30T07:12:55.122Z,14.77
2022-07-30T07:15:36.344Z,13.25
2022-07-30T07:18:05.002Z,13.60
2022-07-30T07:20:32.347Z,13.63
2022-07-30T07:22:59.483Z,12.90
2022-07-30T07:25:26.681Z,12.63
2022-07-30T07:28:12.842Z,11.73
2022-07-30T07:30:41.301Z,11.65
2022-07-30T07:33:08.690Z,11.35
2022-07-30T07:35:41.109Z,10.60
2022-07-30T07:38:16.626Z,10.43
2022-07-30T07:40:43.764Z,9.80
2022-07-30T07:43:10.913Z,9.70
2022-07-30T07:45:38.305Z,9.45
2022-07-30T07:48:05.849Z,8.25
2022-07-30T07:50:32.999Z,7.97
2022-07-30T07:53:00.468Z,8.13
2022-07-30T07:55:27.825Z,6.70
2022-07-30T07:57:54.955Z,6.60
2022-07-30T08:00:22.238Z,7.15
2022-07-30T08:02:49.672Z,6.28
2022-07-30T08:05:17.522Z,5.97
2022-07-30T08:07:45.301Z,5.47
2022-07-30T08:10:15.013Z,5.70
2022-07-30T08:12:42.687Z,5.68
2022-07-30T08:15:10.197Z,5.45
2022-07-30T08:17:44.025Z,6.00
2022-07-30T08:20:11.760Z,5.65
2022-07-30T08:22:38.930Z,4.80
2022-07-30T08:25:06.589Z,5.53
2022-07-30T08:27:33.787Z,5.40
2022-07-30T08:30:08.505Z,4.22
2022-07-30T08:32:36.073Z,4.07
2022-07-30T08:35:03.972Z,4.60
2022-07-30T08:37:31.229Z,4.30
2022-07-30T08:39:58.482Z,4.10
2022-07-30T08:42:27.190Z,4.45
2022-07-30T08:44:54.773Z,4.40
2022-07-30T08:47:24.327Z,3.92
2022-07-30T08:49:52.649Z,3.78
2022-07-30T08:52:20.350Z,4.03
2022-07-30T08:54:47.559Z,3.55
2022-07-30T08:57:15.091Z,3.28
2022-07-30T09:00:00.799Z,3.22
2022-07-30T09:02:30.688Z,3.13
2022-07-30T09:04:57.862Z,3.15
2022-07-30T09:07:24.985Z,3.33
2022-07-30T09:09:52.136Z,3.65
2022-07-30T09:12:34.146Z,3.72
2022-07-30T09:15:19.316Z,3.70
2022-07-30T09:17:47.934Z,4.05
2022-07-30T09:20:15.169Z,3.55
2022-07-30T09:22:47.278Z,3.83
2022-07-30T09:25:14.439Z,3.50
2022-07-30T09:27:45.653Z,3.10
2022-07-30T09:30:13.025Z,3.53
2022-07-30T09:32:50.333Z,4.15
2022-07-30T09:35:18.263Z,3.90
2022-07-30T09:37:46.326Z,4.20
2022-07-30T09:40:17.583Z,4.50
2022-07-30T09:42:45.140Z,4.18
2022-07-30T09:45:13.485Z,4.22
2022-07-30T09:47:44.882Z,3.60
2022-07-30T09:50:13.543Z,3.70
2022-07-30T09:53:06.487Z,4.05
2022-07-30T09:55:34.476Z,3.53
2022-07-30T09:58:03.258Z,4.07
2022-07-30T10:00:31.845Z,3.83
2022-07-30T10:03:00.611Z,3.90
2022-07-30T10:05:40.018Z,3.40
2022-07-30T10:08:09.385Z,3.53
2022-07-30T10:10:46.903Z,3.40
2022-07-30T10:13:17.931Z,3.03
2022-07-30T10:15:50.127Z,3.45
2022-07-30T10:18:18.298Z,3.42
2022-07-30T10:20:45.733Z,3.30
2022-07-30T10:24:46.591Z,3.08
2022-07-30T10:26:03.586Z,3.30
2022-07-30T10:28:35.798Z,3.45
2022-07-30T10:31:08.439Z,3.05
2022-07-30T10:33:53.506Z,2.65
2022-07-30T10:36:21.796Z,3.13
2022-07-30T10:38:53.053Z,2.78
2022-07-30T10:41:43.351Z,2.50
2022-07-30T10:44:25.764Z,3.17
2022-07-30T10:46:58.790Z,2.53
2022-07-30T10:49:26.233Z,2.60
2022-07-30T10:51:55.132Z,2.80
2022-07-30T10:54:57.823Z,2.75
2022-07-30T10:57:32.279Z,2.80
2022-07-30T11:00:09.554Z,2.60
2022-07-30T11:02:36.756Z,2.75
2022-07-30T11:05:27.168Z,2.50
2022-07-30T11:08:31.795Z,2.33
2022-07-30T11:10:59.763Z,1.95
2022-07-30T11:14:00.249Z,2.30
2022-07-30T11:16:33.231Z,1.95
2022-07-30T11:19:55.235Z,1.88
2022-07-30T11:22:17.571Z,2.50
2022-07-30T11:24:47.094Z,1.85
2022-07-30T11:27:36.208Z,2.20
2022-07-30T11:30:04.179Z,2.17
2022-07-30T11:32:32.400Z,2.47
2022-07-30T11:35:14.771Z,2.60
2022-07-30T11:38:01.982Z,2.60
2022-07-30T11:40:30.687Z,2.33
2022-07-30T11:43:17.293Z,2.63
2022-07-30T11:45:45.335Z,2.80
2022-07-30T11:48:13.720Z,2.80
2022-07-30T11:50:41.616Z,2.80
2022-07-30T11:53:09.689Z,2.72
2022-07-30T11:55:42.433Z,2.97
2022-07-30T11:58:10.763Z,2.88
2022-07-30T12:00:39.933Z,3.13
2022-07-30T12:03:13.767Z,2.92
2022-07-30T12:05:41.186Z,2.85
2022-07-30T12:08:08.555Z,2.75
2022-07-30T12:10:56.919Z,3.00
2022-07-30T12:13:45.100Z,3.05
2022-07-30T12:16:15.941Z,2.47
2022-07-30T12:18:43.196Z,2.72
2022-07-30T12:21:17.304Z,3.08
2022-07-30T12:23:54.554Z,3.00
2022-07-30T12:26:22.482Z,3.20
2022-07-30T12:28:49.925Z,3.28
2022-07-30T12:31:17.418Z,3.45
2022-07-30T12:33:44.557Z,3.33
2022-07-30T12:36:24.132Z,3.25
2022-07-30T12:38:52.724Z,3.20
2022-07-30T12:41:20.007Z,3.58
2022-07-30T12:43:49.918Z,3.17
2022-07-30T12:46:18.661Z,2.90
2022-07-30T12:48:49.437Z,3.10
2022-07-30T12:51:16.995Z,8.52
2022-07-30T12:53:44.349Z,3.28
2022-07-30T12:56:15.541Z,6.03
2022-07-30T12:58:43.083Z,3.45
2022-07-30T13:01:13.226Z,4.35
2022-07-30T13:03:40.860Z,3.20
2022-07-30T13:06:18.631Z,4.68
2022-07-30T13:08:47.484Z,3.72
2022-07-30T13:11:14.863Z,3.10
2022-07-30T13:13:42.022Z,3.60
2022-07-30T13:16:09.430Z,3.60
2022-07-30T13:18:37.341Z,8.48
2022-07-30T13:21:06.800Z,4.40
2022-07-30T13:23:34.529Z,4.03
2022-07-30T13:26:01.657Z,3.50
2022-07-30T13:28:28.783Z,3.50
2022-07-30T13:30:57.141Z,3.65
2022-07-30T13:33:24.471Z,3.03
2022-07-30T13:35:51.600Z,3.20
2022-07-30T13:38:18.734Z,2.55
2022-07-30T13:40:45.879Z,2.88
2022-07-30T13:43:13.077Z,3.13
2022-07-30T13:45:40.271Z,2.85
2022-07-30T13:48:07.478Z,2.80
2022-07-30T13:50:34.693Z,2.75
2022-07-30T13:53:02.695Z,2.85
2022-07-30T13:55:30.139Z,2.90
2022-07-30T13:57:57.322Z,3.13
2022-07-30T14:00:24.760Z,3.08
2022-07-30T14:02:52.204Z,2.70
2022-07-30T14:05:19.417Z,3.00
2022-07-30T14:07:46.563Z,2.97
2022-07-30T14:10:13.764Z,2.78
2022-07-30T14:12:40.951Z,2.85
2022-07-30T14:15:09.659Z,3.33
2022-07-30T14:17:36.997Z,2.70
2022-07-30T14:20:04.602Z,2.67
2022-07-30T14:22:31.735Z,2.88
2022-07-30T14:25:00.274Z,2.67
2022-07-30T14:27:27.403Z,2.60
2022-07-30T14:29:54.539Z,2.80
2022-07-30T14:32:21.686Z,2.80
2022-07-30T14:34:50.622Z,2.65
2022-07-30T14:37:18.061Z,2.45
2022-07-30T14:39:45.189Z,2.50
2022-07-30T14:42:12.364Z,3.55
2022-07-30T14:44:39.518Z,2.60
2022-07-30T14:47:07.167Z,2.75
2022-07-30T14:49:34.673Z,2.67
2022-07-30T14:52:01.951Z,2.70
2022-07-30T14:54:29.189Z,2.30
2022-07-30T14:56:58.418Z,2.50
2022-07-30T14:59:27.437Z,2.67
2022-07-30T15:01:55.378Z,2.75
2022-07-30T15:04:23.062Z,2.47
2022-07-30T15:06:50.232Z,2.40
2022-07-30T15:09:17.370Z,3.20
2022-07-30T15:12:08.072Z,2.90
2022-07-30T15:14:31.687Z,2.70
2022-07-30T15:17:03.985Z,2.60
2022-07-30T15:19:31.865Z,2.42
2022-07-30T15:22:02.009Z,2.67
2022-07-30T15:24:29.839Z,2.78
2022-07-30T15:26:56.965Z,2.63
2022-07-30T15:29:24.372Z,2.70
2022-07-30T15:31:52.122Z,2.22
2022-07-30T15:34:19.383Z,2.67
2022-07-30T15:36:46.533Z,2.38
2022-07-30T15:39:13.657Z,2.15
2022-07-30T15:41:42.915Z,2.65
2022-07-30T15:44:10.137Z,2.25
2022-07-30T15:46:37.275Z,2.40
2022-07-30T15:49:04.465Z,2.30
2022-07-30T15:51:32.738Z,2.60
2022-07-30T15:53:59.965Z,2.50
2022-07-30T15:56:28.271Z,2.70
2022-07-30T15:58:55.577Z,2.28
2022-07-30T16:01:22.959Z,2.67
2022-07-30T16:03:50.164Z,2.70
2022-07-30T16:06:17.307Z,2.70
2022-07-30T16:08:44.510Z,2.70
2022-07-30T16:11:11.681Z,2.50
2022-07-30T16:13:38.864Z,2.42
2022-07-30T16:16:05.991Z,2.50
2022-07-30T16:18:33.128Z,2.63
2022-07-30T16:21:01.251Z,2.50
2022-07-30T16:23:36.225Z,2.67
2022-07-30T16:26:04.116Z,2.47
2022-07-30T16:28:31.249Z,2.63
2022-07-30T16:30:58.429Z,2.40
2022-07-30T16:33:25.546Z,2.70
2022-07-30T16:35:52.723Z,2.47
2022-07-30T16:38:20.751Z,2.50
2022-07-30T16:40:47.977Z,2.63
2022-07-30T16:43:15.646Z,2.70
2022-07-30T16:45:46.670Z,2.53
2022-07-30T16:48:13.860Z,2.55
2022-07-30T16:50:41.828Z,2.58
2022-07-30T16:53:13.341Z,2.45
2022-07-30T16:55:41.279Z,2.70
2022-07-30T16:58:08.408Z,2.45
2022-07-30T17:00:35.549Z,2.22
2022-07-30T17:03:02.856Z,2.38
2022-07-30T17:05:30.027Z,2.75
2022-07-30T17:07:57.225Z,2.60
2022-07-30T17:10:26.359Z,2.40
2022-07-30T17:12:54.398Z,2.63
2022-07-30T17:15:32.961Z,2.88
2022-07-30T17:18:00.543Z,3.00
2022-07-30T17:20:27.820Z,3.25
2022-07-30T17:22:56.047Z,3.40
2022-07-30T17:25:25.625Z,3.17
2022-07-30T17:27:52.718Z,3.72
2022-07-30T17:30:20.489Z,3.17
2022-07-30T17:32:47.713Z,3.25
2022-07-30T17:35:16.054Z,3.47
2022-07-30T17:37:43.253Z,3.38
2022-07-30T17:40:27.578Z,3.38
2022-07-30T17:43:04.651Z,3.83
2022-07-30T17:45:35.752Z,3.50
2022-07-30T17:48:03.438Z,3.38
2022-07-30T17:50:32.143Z,3.88
2022-07-30T17:52:59.542Z,3.85
2022-07-30T17:55:28.219Z,3.50
2022-07-30T17:57:55.363Z,3.50
2022-07-30T18:00:23.070Z,3.67
2022-07-30T18:02:50.216Z,3.53
2022-07-30T18:05:17.398Z,3.88
2022-07-30T18:07:44.621Z,3.80
2022-07-30T18:10:13.008Z,3.55
2022-07-30T18:12:48.951Z,3.55
2022-07-30T18:15:16.944Z,4.28
2022-07-30T18:17:44.134Z,3.80
2022-07-30T18:20:11.534Z,3.60
2022-07-30T18:22:38.698Z,3.78
2022-07-30T18:25:07.975Z,3.70
2022-07-30T18:27:43.631Z,3.55
2022-07-30T18:30:10.980Z,3.63
2022-07-30T18:32:38.510Z,3.78
2022-07-30T18:35:06.803Z,3.95
2022-07-30T18:37:41.263Z,3.78
2022-07-30T18:40:09.556Z,3.88
2022-07-30T18:42:36.829Z,3.30
2022-07-30T18:45:04.353Z,4.28
2022-07-30T18:47:31.467Z,3.60
2022-07-30T18:49:58.679Z,3.90
2022-07-30T18:52:25.921Z,3.78
2022-07-30T18:54:53.059Z,3.30
2022-07-30T18:57:20.193Z,3.60
2022-07-30T18:59:47.343Z,4.03
2022-07-30T19:02:14.494Z,3.45
2022-07-30T19:04:41.665Z,4.13
2022-07-30T19:07:08.831Z,3.30
2022-07-30T19:09:36.051Z,3.40
2022-07-30T19:12:03.604Z,3.78
2022-07-30T19:14:30.934Z,3.30
2022-07-30T19:16:59.298Z,3.50
2022-07-30T19:19:27.549Z,3.28
2022-07-30T19:21:54.980Z,3.58
2022-07-30T19:24:22.173Z,3.30
2022-07-30T19:26:49.416Z,3.60
2022-07-30T19:29:16.612Z,3.60
2022-07-30T19:31:43.774Z,3.78
2022-07-30T19:34:11.708Z,3.20
2022-07-30T19:36:39.691Z,3.70
2022-07-30T19:39:08.242Z,3.97
2022-07-30T19:41:40.704Z,3.50
2022-07-30T19:44:09.074Z,3.50
2022-07-30T19:46:36.378Z,3.60
2022-07-30T19:49:03.629Z,3.80
2022-07-30T19:52:22.957Z,4.00
2022-07-30T19:54:21.121Z,4.00
2022-07-30T19:56:48.940Z,3.30
2022-07-30T19:59:18.225Z,3.50
2022-07-30T20:01:45.344Z,4.13
2022-07-30T20:04:18.963Z,3.80
2022-07-30T20:06:46.393Z,4.50
2022-07-30T20:09:14.596Z,4.38
2022-07-30T20:11:42.924Z,4.10
2022-07-30T20:14:10.587Z,3.77
2022-07-30T20:16:37.801Z,4.20
2022-07-30T20:19:05.224Z,4.20
2022-07-30T20:21:56.248Z,4.50
2022-07-30T20:24:20.950Z,4.50
2022-07-30T20:26:48.244Z,5.10
2022-07-30T20:29:19.371Z,4.50
2022-07-30T20:31:49.915Z,5.27
2022-07-30T20:34:19.510Z,4.60
2022-07-30T20:36:47.775Z,4.87
2022-07-30T20:39:18.470Z,4.70
2022-07-30T20:41:47.017Z,4.70
2022-07-30T20:44:23.041Z,4.70
2022-07-30T20:46:50.921Z,4.87
2022-07-30T20:49:24.245Z,5.00
2022-07-30T20:52:02.950Z,4.40
2022-07-30T20:54:30.349Z,5.13
2022-07-30T20:56:57.815Z,4.43
2022-07-30T20:59:25.175Z,4.50
2022-07-30T21:01:52.271Z,4.57
2022-07-30T21:04:23.998Z,4.57
2022-07-30T21:06:52.853Z,4.70
2022-07-30T21:09:20.492Z,4.50
2022-07-30T21:11:50.281Z,4.40
2022-07-30T21:14:18.306Z,4.50
2022-07-30T21:16:46.829Z,4.40
2022-07-30T21:19:17.752Z,4.80
2022-07-30T21:21:48.272Z,4.80
2022-07-30T21:24:18.751Z,4.80
2022-07-30T21:26:48.628Z,4.63
2022-07-30T21:29:16.381Z,4.30
2022-07-30T21:32:01.704Z,4.53
2022-07-30T21:34:36.022Z,4.77
2022-07-30T21:37:07.646Z,4.60
2022-07-30T21:39:40.207Z,4.37
2022-07-30T21:42:08.077Z,4.90
2022-07-30T21:44:35.892Z,4.80
2022-07-30T21:47:05.112Z,5.53
2022-07-30T21:49:37.386Z,5.50
2022-07-30T21:52:05.023Z,5.27
2022-07-30T21:54:37.499Z,5.13
2022-07-30T21:57:13.000Z,4.93
2022-07-30T21:59:41.060Z,4.70
2022-07-30T22:02:15.898Z,5.00
2022-07-30T22:04:47.576Z,4.77
2022-07-30T22:07:17.971Z,5.10
2022-07-30T22:09:45.610Z,5.40
2022-07-30T22:12:18.013Z,5.23
2022-07-30T22:14:45.354Z,5.13
2022-07-30T22:17:23.475Z,5.13
2022-07-30T22:19:56.932Z,4.60
2022-07-30T22:22:27.450Z,4.80
2022-07-30T22:24:58.133Z,5.27
2022-07-30T22:27:25.546Z,5.10
2022-07-30T22:29:55.593Z,5.10
2022-07-30T22:32:23.302Z,5.03
2022-07-30T22:34:50.667Z,5.07
2022-07-30T22:37:21.177Z,5.03
2022-07-30T22:39:50.790Z,5.30
2022-07-30T22:42:19.738Z,5.10
2022-07-30T22:44:47.319Z,5.40
2022-07-30T22:47:18.737Z,5.40
2022-07-30T22:49:59.193Z,4.70
2022-07-30T22:52:28.243Z,5.27
2022-07-30T22:54:59.751Z,5.50
2022-07-30T22:57:37.876Z,5.67
2022-07-30T23:00:07.002Z,5.63
2022-07-30T23:02:38.999Z,5.80
2022-07-30T23:05:06.700Z,5.60
2022-07-30T23:07:38.894Z,5.90
2022-07-30T23:10:17.097Z,5.40
2022-07-30T23:12:46.338Z,5.50
2022-07-30T23:15:13.610Z,5.43
2022-07-30T23:17:40.732Z,5.50
2022-07-30T23:20:09.733Z,5.63
2022-07-30T23:22:36.983Z,4.80
2022-07-30T23:25:07.698Z,5.50
2022-07-30T23:27:34.874Z,5.50
2022-07-30T23:30:02.012Z,5.30
2022-07-30T23:32:29.225Z,5.40
2022-07-30T23:34:56.349Z,5.30
2022-07-30T23:37:23.487Z,5.70
2022-07-30T23:39:50.707Z,6.03
2022-07-30T23:42:18.810Z,5.47
2022-07-30T23:44:45.983Z,5.30
2022-07-30T23:47:13.102Z,5.33
2022-07-30T23:49:40.263Z,5.27
2022-07-30T23:52:07.406Z,5.37
2022-07-30T23:54:34.541Z,5.60
2022-07-30T23:57:01.919Z,5.60
2022-07-30T23:59:40.722Z,6.00
